sensor_id;sensor_type;location;lat;lon;timestamp;temperature;humidity
6810;DHT22;3443;48.812;9.112;2023-03-14T00:01:46;10.00;99.90
6810;DHT22;3443;48.812;9.112;2023-03-14T00:04:12;10.00;99.90
6810;DHT22;3443;48.812;9.112;2023-03-14T00:06:38;10.00;99.90
6810;DHT22;3443;48.812;9.112;2023-03-14T00:09:03;10.00;99.90
6810;DHT22;3443;48.812;9.112;2023-03-14T00:11:29;10.00;99.90
6810;DHT22;3443;48.812;9.112;2023-03-14T00:13:55;10.00;99.90
6810;DHT22;3443;48.812;9.112;2023-03-14T00:16:20;10.00;99.90
6810;DHT22;3443;48.812;9.112;2023-03-14T00:18:46;10.00;99.90
6810;DHT22;3443;48.812;9.112;2023-03-14T00:21:12;9.90;99.90
6810;DHT22;3443;48.812;9.112;2023-03-14T00:23:40;9.90;99.90
6810;DHT22;3443;48.812;9.112;2023-03-14T00:26:11;9.90;99.90
6810;DHT22;3443;48.812;9.112;2023-03-14T00:28:37;9.90;99.90
6810;DHT22;3443;48.812;9.112;2023-03-14T00:31:04;9.90;99.90
6810;DHT22;3443;48.812;9.112;2023-03-14T00:33:30;9.90;99.90
6810;DHT22;3443;48.812;9.112;2023-03-14T00:36:01;9.90;99.90
6810;DHT22;3443;48.812;9.112;2023-03-14T00:38:27;9.80;99.90
6810;DHT22;3443;48.812;9.112;2023-03-14T00:40:53;9.90;99.90
6810;DHT22;3443;48.812;9.112;2023-03-14T00:43:19;9.80;99.90
6810;DHT22;3443;48.812;9.112;2023-03-14T00:45:49;9.90;99.90
6810;DHT22;3443;48.812;9.112;2023-03-14T00:48:15;9.90;99.90
6810;DHT22;3443;48.812;9.112;2023-03-14T00:50:41;9.80;99.90
6810;DHT22;3443;48.812;9.112;2023-03-14T00:53:06;9.90;99.90
6810;DHT22;3443;48.812;9.112;2023-03-14T00:55:36;9.80;99.90
6810;DHT22;3443;48.812;9.112;2023-03-14T00:58:03;9.80;99.90
6810;DHT22;3443;48.812;9.112;2023-03-14T01:00:28;9.80;99.90
6810;DHT22;3443;48.812;9.112;2023-03-14T01:02:54;9.90;99.90
6810;DHT22;3443;48.812;9.112;2023-03-14T01:05:21;9.90;99.90
6810;DHT22;3443;48.812;9.112;2023-03-14T01:07:47;9.90;99.90
6810;DHT22;3443;48.812;9.112;2023-03-14T01:10:13;9.90;99.90
6810;DHT22;3443;48.812;9.112;2023-03-14T01:12:38;10.00;99.90
6810;DHT22;3443;48.812;9.112;2023-03-14T01:15:04;10.00;99.90
6810;DHT22;3443;48.812;9.112;2023-03-14T01:17:30;10.00;99.90
6810;DHT22;3443;48.812;9.112;2023-03-14T01:19:55;10.00;99.90
6810;DHT22;3443;48.812;9.112;2023-03-14T01:22:21;10.00;99.90
6810;DHT22;3443;48.812;9.112;2023-03-14T01:24:47;9.90;99.90
6810;DHT22;3443;48.812;9.112;2023-03-14T01:27:13;9.90;99.90
6810;DHT22;3443;48.812;9.112;2023-03-14T01:29:38;9.90;99.90
6810;DHT22;3443;48.812;9.112;2023-03-14T01:32:04;9.90;99.90
6810;DHT22;3443;48.812;9.112;2023-03-14T01:34:30;10.00;99.90
6810;DHT22;3443;48.812;9.112;2023-03-14T01:36:55;10.00;99.90
6810;DHT22;3443;48.812;9.112;2023-03-14T01:39:21;10.00;99.90
6810;DHT22;3443;48.812;9.112;2023-03-14T01:41:46;10.00;99.90
6810;DHT22;3443;48.812;9.112;2023-03-14T01:44:12;10.00;99.90
6810;DHT22;3443;48.812;9.112;2023-03-14T01:46:43;10.00;99.90
6810;DHT22;3443;48.812;9.112;2023-03-14T01:49:15;10.00;99.90
6810;DHT22;3443;48.812;9.112;2023-03-14T01:52:00;9.90;99.90
6810;DHT22;3443;48.812;9.112;2023-03-14T01:54:42;9.90;99.90
6810;DHT22;3443;48.812;9.112;2023-03-14T01:59:34;9.90;99.90
6810;DHT22;3443;48.812;9.112;2023-03-14T02:02:01;9.90;99.90
6810;DHT22;3443;48.812;9.112;2023-03-14T02:04:30;9.90;99.90
6810;DHT22;3443;48.812;9.112;2023-03-14T02:07:15;9.90;99.90
6810;DHT22;3443;48.812;9.112;2023-03-14T02:09:41;9.90;99.90
6810;DHT22;3443;48.812;9.112;2023-03-14T02:12:08;10.00;99.90
6810;DHT22;3443;48.812;9.112;2023-03-14T02:14:36;9.90;99.90
6810;DHT22;3443;48.812;9.112;2023-03-14T02:17:04;9.90;99.90
6810;DHT22;3443;48.812;9.112;2023-03-14T02:19:43;9.90;99.90
6810;DHT22;3443;48.812;9.112;2023-03-14T02:22:13;9.90;99.90
6810;DHT22;3443;48.812;9.112;2023-03-14T02:27:21;9.90;99.90
6810;DHT22;3443;48.812;9.112;2023-03-14T02:29:54;9.90;99.90
6810;DHT22;3443;48.812;9.112;2023-03-14T02:32:22;9.90;99.90
6810;DHT22;3443;48.812;9.112;2023-03-14T02:34:59;9.90;99.90
6810;DHT22;3443;48.812;9.112;2023-03-14T02:37:35;9.90;99.90
6810;DHT22;3443;48.812;9.112;2023-03-14T02:40:02;9.80;99.90
6810;DHT22;3443;48.812;9.112;2023-03-14T02:42:29;9.80;99.90
6810;DHT22;3443;48.812;9.112;2023-03-14T02:47:44;9.80;99.90
6810;DHT22;3443;48.812;9.112;2023-03-14T02:50:23;9.80;99.90
6810;DHT22;3443;48.812;9.112;2023-03-14T02:52:50;9.70;99.90
6810;DHT22;3443;48.812;9.112;2023-03-14T02:55:20;9.70;99.90
6810;DHT22;3443;48.812;9.112;2023-03-14T02:57:46;9.80;99.90
6810;DHT22;3443;48.812;9.112;2023-03-14T03:00:12;9.70;99.90
6810;DHT22;3443;48.812;9.112;2023-03-14T03:02:37;9.70;99.90
6810;DHT22;3443;48.812;9.112;2023-03-14T03:05:03;9.70;99.90
6810;DHT22;3443;48.812;9.112;2023-03-14T03:07:29;9.70;99.90
6810;DHT22;3443;48.812;9.112;2023-03-14T03:09:54;9.70;99.90
6810;DHT22;3443;48.812;9.112;2023-03-14T03:12:20;9.70;99.90
6810;DHT22;3443;48.812;9.112;2023-03-14T03:14:45;9.70;99.90
6810;DHT22;3443;48.812;9.112;2023-03-14T03:17:11;9.70;99.90
6810;DHT22;3443;48.812;9.112;2023-03-14T03:19:36;9.70;99.90
6810;DHT22;3443;48.812;9.112;2023-03-14T03:22:02;9.70;99.90
6810;DHT22;3443;48.812;9.112;2023-03-14T03:24:27;9.70;99.90
6810;DHT22;3443;48.812;9.112;2023-03-14T03:26:53;9.70;99.90
6810;DHT22;3443;48.812;9.112;2023-03-14T03:29:19;9.70;99.90
6810;DHT22;3443;48.812;9.112;2023-03-14T03:31:44;9.60;99.90
6810;DHT22;3443;48.812;9.112;2023-03-14T03:34:13;9.60;99.90
6810;DHT22;3443;48.812;9.112;2023-03-14T03:36:39;9.60;99.90
6810;DHT22;3443;48.812;9.112;2023-03-14T03:39:05;9.60;99.90
6810;DHT22;3443;48.812;9.112;2023-03-14T03:41:31;9.60;99.90
6810;DHT22;3443;48.812;9.112;2023-03-14T03:43:56;9.60;99.90
6810;DHT22;3443;48.812;9.112;2023-03-14T03:46:22;9.50;99.90
6810;DHT22;3443;48.812;9.112;2023-03-14T03:48:48;9.50;99.90
6810;DHT22;3443;48.812;9.112;2023-03-14T03:51:15;9.50;99.90
6810;DHT22;3443;48.812;9.112;2023-03-14T03:53:41;9.40;99.90
6810;DHT22;3443;48.812;9.112;2023-03-14T03:56:08;9.50;99.90
6810;DHT22;3443;48.812;9.112;2023-03-14T03:58:34;9.40;99.90
6810;DHT22;3443;48.812;9.112;2023-03-14T04:01:00;9.40;99.90
6810;DHT22;3443;48.812;9.112;2023-03-14T04:03:25;9.40;99.90
6810;DHT22;3443;48.812;9.112;2023-03-14T04:06:12;9.40;99.90
6810;DHT22;3443;48.812;9.112;2023-03-14T04:08:38;9.30;99.90
6810;DHT22;3443;48.812;9.112;2023-03-14T04:11:06;9.30;99.90
6810;DHT22;3443;48.812;9.112;2023-03-14T04:13:31;9.30;99.90
6810;DHT22;3443;48.812;9.112;2023-03-14T04:15:57;9.30;99.90
6810;DHT22;3443;48.812;9.112;2023-03-14T04:18:23;9.30;99.90
6810;DHT22;3443;48.812;9.112;2023-03-14T04:20:55;9.30;99.90
6810;DHT22;3443;48.812;9.112;2023-03-14T04:23:22;9.30;99.90
6810;DHT22;3443;48.812;9.112;2023-03-14T04:25:52;9.30;99.90
6810;DHT22;3443;48.812;9.112;2023-03-14T04:28:18;9.30;99.90
6810;DHT22;3443;48.812;9.112;2023-03-14T04:30:44;9.30;99.90
6810;DHT22;3443;48.812;9.112;2023-03-14T04:33:10;9.30;99.90
6810;DHT22;3443;48.812;9.112;2023-03-14T04:35:36;9.20;99.90
6810;DHT22;3443;48.812;9.112;2023-03-14T04:38:01;9.20;99.90
6810;DHT22;3443;48.812;9.112;2023-03-14T04:40:28;9.20;99.90
6810;DHT22;3443;48.812;9.112;2023-03-14T04:42:53;9.20;99.90
6810;DHT22;3443;48.812;9.112;2023-03-14T04:45:19;9.20;99.90
6810;DHT22;3443;48.812;9.112;2023-03-14T04:47:44;9.20;99.90
6810;DHT22;3443;48.812;9.112;2023-03-14T04:50:10;9.20;99.90
6810;DHT22;3443;48.812;9.112;2023-03-14T04:52:36;9.20;99.90
6810;DHT22;3443;48.812;9.112;2023-03-14T04:55:01;9.20;99.90
6810;DHT22;3443;48.812;9.112;2023-03-14T04:57:27;9.20;99.90
6810;DHT22;3443;48.812;9.112;2023-03-14T04:59:52;9.20;99.90
6810;DHT22;3443;48.812;9.112;2023-03-14T05:02:18;9.20;99.90
6810;DHT22;3443;48.812;9.112;2023-03-14T05:04:44;9.20;99.90
6810;DHT22;3443;48.812;9.112;2023-03-14T05:07:09;9.20;99.90
6810;DHT22;3443;48.812;9.112;2023-03-14T05:09:35;9.30;99.90
6810;DHT22;3443;48.812;9.112;2023-03-14T05:12:00;9.20;99.90
6810;DHT22;3443;48.812;9.112;2023-03-14T05:14:26;9.20;99.90
6810;DHT22;3443;48.812;9.112;2023-03-14T05:16:52;9.10;99.90
6810;DHT22;3443;48.812;9.112;2023-03-14T05:19:17;9.20;99.90
6810;DHT22;3443;48.812;9.112;2023-03-14T05:21:43;9.10;99.90
6810;DHT22;3443;48.812;9.112;2023-03-14T05:24:08;9.00;99.90
6810;DHT22;3443;48.812;9.112;2023-03-14T05:26:34;9.10;99.90
6810;DHT22;3443;48.812;9.112;2023-03-14T05:28:59;9.00;99.90
6810;DHT22;3443;48.812;9.112;2023-03-14T05:31:25;9.10;99.90
6810;DHT22;3443;48.812;9.112;2023-03-14T05:33:50;9.00;99.90
6810;DHT22;3443;48.812;9.112;2023-03-14T05:36:16;9.00;99.90
6810;DHT22;3443;48.812;9.112;2023-03-14T05:38:41;9.00;99.90
6810;DHT22;3443;48.812;9.112;2023-03-14T05:41:07;9.10;99.90
6810;DHT22;3443;48.812;9.112;2023-03-14T05:43:33;9.10;99.90
6810;DHT22;3443;48.812;9.112;2023-03-14T05:45:58;9.10;99.90
6810;DHT22;3443;48.812;9.112;2023-03-14T05:48:24;9.10;99.90
6810;DHT22;3443;48.812;9.112;2023-03-14T05:50:55;9.10;99.90
6810;DHT22;3443;48.812;9.112;2023-03-14T05:53:20;9.10;99.90
6810;DHT22;3443;48.812;9.112;2023-03-14T05:55:46;9.10;99.90
6810;DHT22;3443;48.812;9.112;2023-03-14T05:58:12;9.00;99.90
6810;DHT22;3443;48.812;9.112;2023-03-14T06:00:37;9.00;99.90
6810;DHT22;3443;48.812;9.112;2023-03-14T06:03:03;9.00;99.90
6810;DHT22;3443;48.812;9.112;2023-03-14T06:05:28;9.00;99.90
6810;DHT22;3443;48.812;9.112;2023-03-14T06:07:54;8.90;99.90
6810;DHT22;3443;48.812;9.112;2023-03-14T06:10:19;9.00;99.90
6810;DHT22;3443;48.812;9.112;2023-03-14T06:12:45;9.00;99.90
6810;DHT22;3443;48.812;9.112;2023-03-14T06:15:10;9.00;99.90
6810;DHT22;3443;48.812;9.112;2023-03-14T06:17:36;9.00;99.90
6810;DHT22;3443;48.812;9.112;2023-03-14T06:20:02;9.00;99.90
6810;DHT22;3443;48.812;9.112;2023-03-14T06:22:27;9.00;99.90
6810;DHT22;3443;48.812;9.112;2023-03-14T06:24:53;9.00;99.90
6810;DHT22;3443;48.812;9.112;2023-03-14T06:27:18;9.00;99.90
6810;DHT22;3443;48.812;9.112;2023-03-14T06:29:44;8.90;99.90
6810;DHT22;3443;48.812;9.112;2023-03-14T06:32:09;8.90;99.90
6810;DHT22;3443;48.812;9.112;2023-03-14T06:34:35;8.90;99.90
6810;DHT22;3443;48.812;9.112;2023-03-14T06:37:00;9.00;99.90
6810;DHT22;3443;48.812;9.112;2023-03-14T06:39:26;9.20;99.90
6810;DHT22;3443;48.812;9.112;2023-03-14T06:41:51;9.30;99.90
6810;DHT22;3443;48.812;9.112;2023-03-14T06:44:17;9.30;99.90
6810;DHT22;3443;48.812;9.112;2023-03-14T06:46:43;9.20;99.90
6810;DHT22;3443;48.812;9.112;2023-03-14T06:49:08;9.20;99.90
6810;DHT22;3443;48.812;9.112;2023-03-14T06:51:34;9.30;99.90
6810;DHT22;3443;48.812;9.112;2023-03-14T06:53:59;9.30;99.90
6810;DHT22;3443;48.812;9.112;2023-03-14T06:56:25;9.20;99.90
6810;DHT22;3443;48.812;9.112;2023-03-14T06:58:50;9.20;99.90
6810;DHT22;3443;48.812;9.112;2023-03-14T07:01:27;9.30;99.90
6810;DHT22;3443;48.812;9.112;2023-03-14T07:03:53;9.30;99.90
6810;DHT22;3443;48.812;9.112;2023-03-14T07:06:18;9.30;99.90
6810;DHT22;3443;48.812;9.112;2023-03-14T07:08:44;9.30;99.90
6810;DHT22;3443;48.812;9.112;2023-03-14T07:11:10;9.30;99.90
6810;DHT22;3443;48.812;9.112;2023-03-14T07:13:37;9.40;99.90
6810;DHT22;3443;48.812;9.112;2023-03-14T07:16:04;9.40;99.90
6810;DHT22;3443;48.812;9.112;2023-03-14T07:18:29;9.50;99.90
6810;DHT22;3443;48.812;9.112;2023-03-14T07:20:55;9.60;99.90
6810;DHT22;3443;48.812;9.112;2023-03-14T07:23:20;9.70;99.90
6810;DHT22;3443;48.812;9.112;2023-03-14T07:25:46;9.80;99.90
6810;DHT22;3443;48.812;9.112;2023-03-14T07:28:11;9.90;99.90
6810;DHT22;3443;48.812;9.112;2023-03-14T07:30:37;9.90;99.90
6810;DHT22;3443;48.812;9.112;2023-03-14T07:33:02;10.00;99.90
6810;DHT22;3443;48.812;9.112;2023-03-14T07:35:28;10.10;99.90
6810;DHT22;3443;48.812;9.112;2023-03-14T07:37:54;10.30;99.90
6810;DHT22;3443;48.812;9.112;2023-03-14T07:40:19;10.50;99.90
6810;DHT22;3443;48.812;9.112;2023-03-14T07:42:45;10.60;99.90
6810;DHT22;3443;48.812;9.112;2023-03-14T07:45:11;10.70;99.90
6810;DHT22;3443;48.812;9.112;2023-03-14T07:47:36;10.80;99.90
6810;DHT22;3443;48.812;9.112;2023-03-14T07:50:04;10.90;99.90
6810;DHT22;3443;48.812;9.112;2023-03-14T07:52:29;10.90;99.90
6810;DHT22;3443;48.812;9.112;2023-03-14T07:54:55;11.00;99.90
6810;DHT22;3443;48.812;9.112;2023-03-14T07:57:21;11.10;99.90
6810;DHT22;3443;48.812;9.112;2023-03-14T07:59:46;11.10;99.90
6810;DHT22;3443;48.812;9.112;2023-03-14T08:02:12;11.20;99.90
6810;DHT22;3443;48.812;9.112;2023-03-14T08:04:39;11.30;99.90
6810;DHT22;3443;48.812;9.112;2023-03-14T08:07:05;11.30;99.90
6810;DHT22;3443;48.812;9.112;2023-03-14T08:09:31;11.40;99.90
6810;DHT22;3443;48.812;9.112;2023-03-14T08:11:56;11.60;99.90
6810;DHT22;3443;48.812;9.112;2023-03-14T08:14:22;11.50;99.90
6810;DHT22;3443;48.812;9.112;2023-03-14T08:16:51;11.50;99.90
6810;DHT22;3443;48.812;9.112;2023-03-14T08:19:16;11.60;99.90
6810;DHT22;3443;48.812;9.112;2023-03-14T08:21:42;11.90;99.90
6810;DHT22;3443;48.812;9.112;2023-03-14T08:24:08;12.20;99.90
6810;DHT22;3443;48.812;9.112;2023-03-14T08:26:33;12.20;99.90
6810;DHT22;3443;48.812;9.112;2023-03-14T08:28:59;12.10;99.90
6810;DHT22;3443;48.812;9.112;2023-03-14T08:31:25;12.10;99.90
6810;DHT22;3443;48.812;9.112;2023-03-14T08:33:50;12.10;99.90
6810;DHT22;3443;48.812;9.112;2023-03-14T08:36:18;12.00;99.90
6810;DHT22;3443;48.812;9.112;2023-03-14T08:38:43;11.90;99.90
6810;DHT22;3443;48.812;9.112;2023-03-14T08:41:09;11.80;99.90
6810;DHT22;3443;48.812;9.112;2023-03-14T08:43:35;11.80;99.90
6810;DHT22;3443;48.812;9.112;2023-03-14T08:46:01;11.70;99.90
6810;DHT22;3443;48.812;9.112;2023-03-14T08:48:28;11.70;99.90
6810;DHT22;3443;48.812;9.112;2023-03-14T08:50:56;11.70;99.90
6810;DHT22;3443;48.812;9.112;2023-03-14T08:53:22;11.80;99.90
6810;DHT22;3443;48.812;9.112;2023-03-14T08:55:52;12.00;99.90
6810;DHT22;3443;48.812;9.112;2023-03-14T08:58:19;12.30;99.90
6810;DHT22;3443;48.812;9.112;2023-03-14T09:00:44;12.50;99.90
6810;DHT22;3443;48.812;9.112;2023-03-14T09:03:10;12.50;99.90
6810;DHT22;3443;48.812;9.112;2023-03-14T09:05:35;12.50;99.90
6810;DHT22;3443;48.812;9.112;2023-03-14T09:08:01;12.40;99.90
6810;DHT22;3443;48.812;9.112;2023-03-14T09:10:27;12.40;99.90
6810;DHT22;3443;48.812;9.112;2023-03-14T09:12:52;12.50;99.90
6810;DHT22;3443;48.812;9.112;2023-03-14T09:15:18;12.50;99.90
6810;DHT22;3443;48.812;9.112;2023-03-14T09:17:44;12.20;99.90
6810;DHT22;3443;48.812;9.112;2023-03-14T09:20:10;12.10;99.90
6810;DHT22;3443;48.812;9.112;2023-03-14T09:22:36;12.10;99.90
6810;DHT22;3443;48.812;9.112;2023-03-14T09:25:03;12.00;99.90
6810;DHT22;3443;48.812;9.112;2023-03-14T09:27:29;12.00;99.90
6810;DHT22;3443;48.812;9.112;2023-03-14T09:29:54;12.00;99.90
6810;DHT22;3443;48.812;9.112;2023-03-14T09:32:20;12.20;99.90
6810;DHT22;3443;48.812;9.112;2023-03-14T09:34:45;12.10;99.90
6810;DHT22;3443;48.812;9.112;2023-03-14T09:37:11;12.10;99.90
6810;DHT22;3443;48.812;9.112;2023-03-14T09:39:37;12.10;99.90
6810;DHT22;3443;48.812;9.112;2023-03-14T09:42:06;12.10;99.90
6810;DHT22;3443;48.812;9.112;2023-03-14T09:44:36;12.10;99.90
6810;DHT22;3443;48.812;9.112;2023-03-14T09:47:09;12.10;99.90
6810;DHT22;3443;48.812;9.112;2023-03-14T09:49:39;12.10;99.90
6810;DHT22;3443;48.812;9.112;2023-03-14T09:54:52;12.10;99.90
6810;DHT22;3443;48.812;9.112;2023-03-14T09:57:21;12.10;99.90
6810;DHT22;3443;48.812;9.112;2023-03-14T09:59:49;12.20;99.90
6810;DHT22;3443;48.812;9.112;2023-03-14T10:02:21;12.20;99.90
6810;DHT22;3443;48.812;9.112;2023-03-14T10:04:49;12.40;99.90
6810;DHT22;3443;48.812;9.112;2023-03-14T10:07:17;12.40;99.90
6810;DHT22;3443;48.812;9.112;2023-03-14T10:09:47;12.60;99.90
6810;DHT22;3443;48.812;9.112;2023-03-14T10:12:13;12.60;99.90
6810;DHT22;3443;48.812;9.112;2023-03-14T10:14:49;12.70;99.90
6810;DHT22;3443;48.812;9.112;2023-03-14T10:17:17;12.80;99.90
6810;DHT22;3443;48.812;9.112;2023-03-14T10:19:55;12.90;99.90
6810;DHT22;3443;48.812;9.112;2023-03-14T10:22:22;12.90;99.90
6810;DHT22;3443;48.812;9.112;2023-03-14T10:24:53;13.00;99.90
6810;DHT22;3443;48.812;9.112;2023-03-14T10:27:23;13.00;99.90
6810;DHT22;3443;48.812;9.112;2023-03-14T10:29:58;13.10;99.90
6810;DHT22;3443;48.812;9.112;2023-03-14T10:32:31;13.10;99.90
6810;DHT22;3443;48.812;9.112;2023-03-14T10:37:34;13.00;99.90
6810;DHT22;3443;48.812;9.112;2023-03-14T10:40:02;13.00;99.90
6810;DHT22;3443;48.812;9.112;2023-03-14T10:42:33;13.00;99.90
6810;DHT22;3443;48.812;9.112;2023-03-14T10:45:25;13.00;99.90
6810;DHT22;3443;48.812;9.112;2023-03-14T10:47:53;13.10;99.90
6810;DHT22;3443;48.812;9.112;2023-03-14T10:50:27;13.20;99.90
6810;DHT22;3443;48.812;9.112;2023-03-14T10:52:55;13.10;99.90
6810;DHT22;3443;48.812;9.112;2023-03-14T10:55:23;12.90;99.90
6810;DHT22;3443;48.812;9.112;2023-03-14T10:57:48;12.80;99.90
6810;DHT22;3443;48.812;9.112;2023-03-14T11:00:16;12.80;99.90
6810;DHT22;3443;48.812;9.112;2023-03-14T11:07:48;12.40;99.90
6810;DHT22;3443;48.812;9.112;2023-03-14T11:10:33;12.40;99.90
6810;DHT22;3443;48.812;9.112;2023-03-14T11:20:59;12.10;99.90
6810;DHT22;3443;48.812;9.112;2023-03-14T11:28:49;11.40;99.90
6810;DHT22;3443;48.812;9.112;2023-03-14T11:31:29;11.30;99.90
6810;DHT22;3443;48.812;9.112;2023-03-14T11:34:01;11.10;99.90
6810;DHT22;3443;48.812;9.112;2023-03-14T11:36:38;11.00;99.90
6810;DHT22;3443;48.812;9.112;2023-03-14T11:39:08;11.00;99.90
6810;DHT22;3443;48.812;9.112;2023-03-14T11:41:42;11.10;99.90
6810;DHT22;3443;48.812;9.112;2023-03-14T11:44:30;11.00;99.90
6810;DHT22;3443;48.812;9.112;2023-03-14T11:47:02;11.10;99.90
6810;DHT22;3443;48.812;9.112;2023-03-14T11:49:43;11.20;99.90
6810;DHT22;3443;48.812;9.112;2023-03-14T11:52:25;11.20;99.90
6810;DHT22;3443;48.812;9.112;2023-03-14T11:57:38;10.90;99.90
6810;DHT22;3443;48.812;9.112;2023-03-14T12:00:18;10.80;99.90
6810;DHT22;3443;48.812;9.112;2023-03-14T12:05:43;10.90;99.90
6810;DHT22;3443;48.812;9.112;2023-03-14T12:08:28;11.30;99.90
6810;DHT22;3443;48.812;9.112;2023-03-14T12:10:59;11.60;99.90
6810;DHT22;3443;48.812;9.112;2023-03-14T12:13:33;11.60;99.90
6810;DHT22;3443;48.812;9.112;2023-03-14T12:16:03;11.50;99.90
6810;DHT22;3443;48.812;9.112;2023-03-14T12:18:32;11.40;99.90
6810;DHT22;3443;48.812;9.112;2023-03-14T12:21:00;11.10;99.90
6810;DHT22;3443;48.812;9.112;2023-03-14T12:23:34;10.90;99.90
6810;DHT22;3443;48.812;9.112;2023-03-14T12:28:32;11.00;99.90
6810;DHT22;3443;48.812;9.112;2023-03-14T12:42:02;10.00;99.90
6810;DHT22;3443;48.812;9.112;2023-03-14T12:46:58;10.20;99.90
6810;DHT22;3443;48.812;9.112;2023-03-14T12:49:32;10.30;99.90
6810;DHT22;3443;48.812;9.112;2023-03-14T12:52:01;10.50;99.90
6810;DHT22;3443;48.812;9.112;2023-03-14T12:59:56;10.70;99.90
6810;DHT22;3443;48.812;9.112;2023-03-14T13:02:28;10.70;99.90
6810;DHT22;3443;48.812;9.112;2023-03-14T13:07:34;10.70;99.90
6810;DHT22;3443;48.812;9.112;2023-03-14T13:15:29;10.10;99.90
6810;DHT22;3443;48.812;9.112;2023-03-14T13:18:03;10.00;99.90
6810;DHT22;3443;48.812;9.112;2023-03-14T13:20:54;10.00;99.90
6810;DHT22;3443;48.812;9.112;2023-03-14T13:23:29;9.80;99.90
6810;DHT22;3443;48.812;9.112;2023-03-14T13:25:55;9.70;99.90
6810;DHT22;3443;48.812;9.112;2023-03-14T13:28:21;9.80;99.90
6810;DHT22;3443;48.812;9.112;2023-03-14T13:30:49;9.90;99.90
6810;DHT22;3443;48.812;9.112;2023-03-14T13:33:17;9.90;99.90
6810;DHT22;3443;48.812;9.112;2023-03-14T13:35:46;10.10;99.90
6810;DHT22;3443;48.812;9.112;2023-03-14T13:38:21;10.20;99.90
6810;DHT22;3443;48.812;9.112;2023-03-14T13:40:49;10.10;99.90
6810;DHT22;3443;48.812;9.112;2023-03-14T13:43:30;9.90;99.90
6810;DHT22;3443;48.812;9.112;2023-03-14T13:46:19;9.80;99.90
6810;DHT22;3443;48.812;9.112;2023-03-14T13:48:48;9.70;99.90
6810;DHT22;3443;48.812;9.112;2023-03-14T13:51:18;9.60;99.90
6810;DHT22;3443;48.812;9.112;2023-03-14T13:53:49;9.60;99.90
6810;DHT22;3443;48.812;9.112;2023-03-14T13:56:20;9.50;99.90
6810;DHT22;3443;48.812;9.112;2023-03-14T13:58:46;9.50;99.90
6810;DHT22;3443;48.812;9.112;2023-03-14T14:03:54;9.30;99.90
6810;DHT22;3443;48.812;9.112;2023-03-14T14:06:35;9.30;99.90
6810;DHT22;3443;48.812;9.112;2023-03-14T14:09:27;9.30;99.90
6810;DHT22;3443;48.812;9.112;2023-03-14T14:12:12;9.40;99.90
6810;DHT22;3443;48.812;9.112;2023-03-14T14:14:47;9.40;99.90
6810;DHT22;3443;48.812;9.112;2023-03-14T14:17:27;9.30;99.90
6810;DHT22;3443;48.812;9.112;2023-03-14T14:19:55;9.30;99.90
6810;DHT22;3443;48.812;9.112;2023-03-14T14:22:22;9.30;99.90
6810;DHT22;3443;48.812;9.112;2023-03-14T14:24:48;9.30;99.90
6810;DHT22;3443;48.812;9.112;2023-03-14T14:27:19;9.20;99.90
6810;DHT22;3443;48.812;9.112;2023-03-14T14:30:02;9.20;99.90
6810;DHT22;3443;48.812;9.112;2023-03-14T14:32:36;9.20;99.90
6810;DHT22;3443;48.812;9.112;2023-03-14T14:35:02;9.20;99.90
6810;DHT22;3443;48.812;9.112;2023-03-14T14:37:32;9.20;99.90
6810;DHT22;3443;48.812;9.112;2023-03-14T14:40:00;9.10;99.90
6810;DHT22;3443;48.812;9.112;2023-03-14T14:42:29;9.10;99.90
6810;DHT22;3443;48.812;9.112;2023-03-14T14:44:56;9.10;99.90
6810;DHT22;3443;48.812;9.112;2023-03-14T14:47:25;9.10;99.90
6810;DHT22;3443;48.812;9.112;2023-03-14T14:49:53;9.10;99.90
6810;DHT22;3443;48.812;9.112;2023-03-14T14:52:21;9.10;99.90
6810;DHT22;3443;48.812;9.112;2023-03-14T14:54:51;9.00;99.90
6810;DHT22;3443;48.812;9.112;2023-03-14T14:57:22;9.00;99.90
6810;DHT22;3443;48.812;9.112;2023-03-14T14:59:49;9.00;99.90
6810;DHT22;3443;48.812;9.112;2023-03-14T15:02:35;9.10;99.90
6810;DHT22;3443;48.812;9.112;2023-03-14T15:05:03;9.10;99.90
6810;DHT22;3443;48.812;9.112;2023-03-14T15:07:28;9.20;99.90
6810;DHT22;3443;48.812;9.112;2023-03-14T15:09:54;9.20;99.90
6810;DHT22;3443;48.812;9.112;2023-03-14T15:12:19;9.20;99.90
6810;DHT22;3443;48.812;9.112;2023-03-14T15:14:46;9.40;99.90
6810;DHT22;3443;48.812;9.112;2023-03-14T15:17:11;9.50;99.90
6810;DHT22;3443;48.812;9.112;2023-03-14T15:19:38;9.40;99.90
6810;DHT22;3443;48.812;9.112;2023-03-14T15:22:08;9.60;99.90
6810;DHT22;3443;48.812;9.112;2023-03-14T15:24:36;9.50;99.90
6810;DHT22;3443;48.812;9.112;2023-03-14T15:27:02;9.40;99.90
6810;DHT22;3443;48.812;9.112;2023-03-14T15:29:28;9.30;99.90
6810;DHT22;3443;48.812;9.112;2023-03-14T15:31:53;9.10;99.90
6810;DHT22;3443;48.812;9.112;2023-03-14T15:34:19;9.10;99.90
6810;DHT22;3443;48.812;9.112;2023-03-14T15:36:44;9.00;99.90
6810;DHT22;3443;48.812;9.112;2023-03-14T15:39:10;9.00;99.90
6810;DHT22;3443;48.812;9.112;2023-03-14T15:41:37;9.00;99.90
6810;DHT22;3443;48.812;9.112;2023-03-14T15:44:02;9.10;99.90
6810;DHT22;3443;48.812;9.112;2023-03-14T15:46:28;9.10;99.90
6810;DHT22;3443;48.812;9.112;2023-03-14T15:48:53;9.20;99.90
6810;DHT22;3443;48.812;9.112;2023-03-14T15:51:19;9.10;99.90
6810;DHT22;3443;48.812;9.112;2023-03-14T15:53:45;9.10;99.90
6810;DHT22;3443;48.812;9.112;2023-03-14T15:56:13;9.20;99.90
6810;DHT22;3443;48.812;9.112;2023-03-14T15:58:39;9.20;99.90
6810;DHT22;3443;48.812;9.112;2023-03-14T16:01:06;9.20;99.90
6810;DHT22;3443;48.812;9.112;2023-03-14T16:03:34;9.20;99.90
6810;DHT22;3443;48.812;9.112;2023-03-14T16:06:00;9.00;99.90
6810;DHT22;3443;48.812;9.112;2023-03-14T16:08:26;8.90;99.90
6810;DHT22;3443;48.812;9.112;2023-03-14T16:10:54;8.80;99.90
6810;DHT22;3443;48.812;9.112;2023-03-14T16:13:19;8.70;99.90
6810;DHT22;3443;48.812;9.112;2023-03-14T16:15:56;8.60;99.90
6810;DHT22;3443;48.812;9.112;2023-03-14T16:18:22;8.60;99.90
6810;DHT22;3443;48.812;9.112;2023-03-14T16:20:59;8.60;99.90
6810;DHT22;3443;48.812;9.112;2023-03-14T16:23:26;8.50;99.90
6810;DHT22;3443;48.812;9.112;2023-03-14T16:25:52;8.50;99.90
6810;DHT22;3443;48.812;9.112;2023-03-14T16:28:18;8.50;99.90
6810;DHT22;3443;48.812;9.112;2023-03-14T16:30:44;8.50;99.90
6810;DHT22;3443;48.812;9.112;2023-03-14T16:33:10;8.50;99.90
6810;DHT22;3443;48.812;9.112;2023-03-14T16:35:36;8.60;99.90
6810;DHT22;3443;48.812;9.112;2023-03-14T16:38:02;8.50;99.90
6810;DHT22;3443;48.812;9.112;2023-03-14T16:40:28;8.50;99.90
6810;DHT22;3443;48.812;9.112;2023-03-14T16:42:54;8.50;99.90
6810;DHT22;3443;48.812;9.112;2023-03-14T16:45:19;8.50;99.90
6810;DHT22;3443;48.812;9.112;2023-03-14T16:47:45;8.50;99.90
6810;DHT22;3443;48.812;9.112;2023-03-14T16:50:10;8.50;99.90
6810;DHT22;3443;48.812;9.112;2023-03-14T16:52:36;8.40;99.90
6810;DHT22;3443;48.812;9.112;2023-03-14T16:55:02;8.50;99.90
6810;DHT22;3443;48.812;9.112;2023-03-14T16:57:28;8.40;99.90
6810;DHT22;3443;48.812;9.112;2023-03-14T16:59:54;8.40;99.90
6810;DHT22;3443;48.812;9.112;2023-03-14T17:02:20;8.50;99.90
6810;DHT22;3443;48.812;9.112;2023-03-14T17:04:45;8.40;99.90
6810;DHT22;3443;48.812;9.112;2023-03-14T17:07:11;8.40;99.90
6810;DHT22;3443;48.812;9.112;2023-03-14T17:09:37;8.40;99.90
6810;DHT22;3443;48.812;9.112;2023-03-14T17:12:03;8.40;99.90
6810;DHT22;3443;48.812;9.112;2023-03-14T17:14:29;8.40;99.90
6810;DHT22;3443;48.812;9.112;2023-03-14T17:16:54;8.20;99.90
6810;DHT22;3443;48.812;9.112;2023-03-14T17:19:20;8.00;99.90
6810;DHT22;3443;48.812;9.112;2023-03-14T17:21:45;7.80;99.90
6810;DHT22;3443;48.812;9.112;2023-03-14T17:24:11;7.70;99.90
6810;DHT22;3443;48.812;9.112;2023-03-14T17:26:37;7.60;99.90